createdAt,value
2017-10-17T00:00:13.222Z,1013.71
2017-10-17T00:00:22.631Z,1013.64
2017-10-17T00:00:30.753Z,1013.70
2017-10-17T00:00:50.850Z,1013.75
2017-10-17T00:01:06.311Z,1013.74
2017-10-17T00:01:24.191Z,1013.71
2017-10-17T00:01:40.954Z,1013.74
2017-10-17T00:01:55.099Z,1013.69
2017-10-17T00:02:09.538Z,1013.70
2017-10-17T00:02:26.438Z,1013.66
2017-10-17T00:02:35.026Z,1013.71
2017-10-17T00:02:43.169Z,1013.65
2017-10-17T00:03:02.314Z,1013.71
2017-10-17T00:03:17.741Z,1013.71
2017-10-17T00:03:34.201Z,1013.70
2017-10-17T00:03:53.146Z,1013.67
2017-10-17T00:04:01.553Z,1013.74
2017-10-17T00:04:09.534Z,1013.72
2017-10-17T00:04:17.834Z,1013.67
2017-10-17T00:04:25.994Z,1013.66
2017-10-17T00:04:42.153Z,1013.65
2017-10-17T00:05:03.342Z,1013.71
2017-10-17T00:05:20.213Z,1013.66
2017-10-17T00:05:34.381Z,1013.67
2017-10-17T00:05:42.585Z,1013.71
2017-10-17T00:05:59.473Z,1013.74
2017-10-17T00:06:07.886Z,1013.72
2017-10-17T00:06:16.218Z,1013.72
2017-10-17T00:06:25.444Z,1013.68
2017-10-17T00:06:43.262Z,1013.70
2017-10-17T00:06:51.078Z,1013.71
2017-10-17T00:07:05.969Z,1013.65
2017-10-17T00:07:22.530Z,1013.74
2017-10-17T00:07:30.413Z,1013.78
2017-10-17T00:07:41.899Z,1013.71
2017-10-17T00:08:02.188Z,1013.70
2017-10-17T00:08:25.565Z,1013.75
2017-10-17T00:08:34.109Z,1013.70
2017-10-17T00:08:48.800Z,1013.60
2017-10-17T00:09:08.756Z,1013.77
2017-10-17T00:09:16.481Z,1013.79
2017-10-17T00:09:33.473Z,1013.76
2017-10-17T00:09:48.112Z,1013.78
2017-10-17T00:09:55.639Z,1013.74
2017-10-17T00:10:04.014Z,1013.73
2017-10-17T00:10:17.943Z,1013.70
2017-10-17T00:10:34.741Z,1013.70
2017-10-17T00:10:48.805Z,1013.74
2017-10-17T00:10:58.901Z,1013.68
2017-10-17T00:11:17.217Z,1013.71
2017-10-17T00:11:37.682Z,1013.83
2017-10-17T00:11:46.092Z,1013.77
2017-10-17T00:11:55.787Z,1013.82
2017-10-17T00:12:05.647Z,1013.75
2017-10-17T00:12:20.265Z,1013.82
2017-10-17T00:12:39.838Z,1013.79
2017-10-17T00:12:52.285Z,1013.79
2017-10-17T00:13:01.990Z,1013.76
2017-10-17T00:13:19.831Z,1013.76
2017-10-17T00:13:39.069Z,1013.92
2017-10-17T00:14:04.249Z,1013.76
2017-10-17T00:14:12.787Z,1013.78
2017-10-17T00:14:28.530Z,1013.80
2017-10-17T00:14:36.530Z,1013.79
2017-10-17T00:14:44.955Z,1013.69
2017-10-17T00:14:58.676Z,1013.73
2017-10-17T00:15:12.354Z,1013.74
2017-10-17T00:15:20.566Z,1013.72
2017-10-17T00:15:29.119Z,1013.72
2017-10-17T00:15:38.527Z,1013.71
2017-10-17T00:16:00.445Z,1013.72
2017-10-17T00:16:08.606Z,1013.73
2017-10-17T00:16:22.413Z,1013.75
2017-10-17T00:16:34.390Z,1013.73
2017-10-17T00:16:50.758Z,1013.72
2017-10-17T00:16:58.774Z,1013.82
2017-10-17T00:17:10.365Z,1013.73
2017-10-17T00:17:28.390Z,1013.71
2017-10-17T00:17:53.091Z,1013.75
2017-10-17T00:18:02.319Z,1013.77
2017-10-17T00:18:16.884Z,1013.79
2017-10-17T00:18:25.877Z,1013.76
2017-10-17T00:18:34.512Z,1013.79
2017-10-17T00:19:00.009Z,1013.83
2017-10-17T00:19:18.646Z,1013.77
2017-10-17T00:19:38.435Z,1013.82
2017-10-17T00:19:56.509Z,1013.78
2017-10-17T00:20:16.970Z,1013.81
2017-10-17T00:20:44.674Z,1013.85
2017-10-17T00:20:52.354Z,1013.80
2017-10-17T00:21:06.038Z,1013.79
2017-10-17T00:21:20.206Z,1013.81
2017-10-17T00:21:37.183Z,1013.82
2017-10-17T00:21:45.398Z,1013.87
2017-10-17T00:22:02.452Z,1013.82
2017-10-17T00:22:12.661Z,1013.81
2017-10-17T00:22:29.767Z,1013.84
2017-10-17T00:22:40.037Z,1013.84
2017-10-17T00:22:49.471Z,1013.78
2017-10-17T00:23:07.893Z,1013.85
2017-10-17T00:23:15.846Z,1013.82
2017-10-17T00:23:34.742Z,1013.79
2017-10-17T00:23:50.489Z,1013.80
2017-10-17T00:24:05.146Z,1013.83
2017-10-17T00:24:19.646Z,1013.84
2017-10-17T00:24:27.866Z,1013.83
2017-10-17T00:24:35.989Z,1013.86
2017-10-17T00:24:44.156Z,1013.81
2017-10-17T00:25:00.009Z,1013.82
2017-10-17T00:25:11.009Z,1013.84
2017-10-17T00:25:21.465Z,1013.75
2017-10-17T00:25:29.147Z,1013.85
2017-10-17T00:25:47.199Z,1013.82
2017-10-17T00:26:03.468Z,1013.84
2017-10-17T00:26:13.175Z,1013.86
2017-10-17T00:26:21.288Z,1013.80
2017-10-17T00:26:30.999Z,1013.87
2017-10-17T00:26:41.005Z,1013.82
2017-10-17T00:26:50.391Z,1013.83
2017-10-17T00:27:05.464Z,1013.87
2017-10-17T00:27:21.917Z,1013.85
2017-10-17T00:27:39.533Z,1013.89
2017-10-17T00:27:55.375Z,1013.83
2017-10-17T00:28:12.862Z,1013.83
2017-10-17T00:28:22.685Z,1013.76
2017-10-17T00:28:30.906Z,1013.81
2017-10-17T00:28:42.493Z,1013.90
2017-10-17T00:28:51.977Z,1013.79
2017-10-17T00:29:08.509Z,1013.87
2017-10-17T00:29:23.403Z,1013.78
2017-10-17T00:29:32.899Z,1013.76
2017-10-17T00:29:41.071Z,1013.77
2017-10-17T00:29:55.899Z,1013.75
2017-10-17T00:30:10.372Z,1013.78
2017-10-17T00:30:18.577Z,1013.78
2017-10-17T00:30:38.578Z,1013.82
2017-10-17T00:30:54.032Z,1013.77
2017-10-17T00:31:10.993Z,1013.84
2017-10-17T00:31:21.428Z,1013.81
2017-10-17T00:31:29.594Z,1013.78
2017-10-17T00:31:37.756Z,1013.84
2017-10-17T00:31:47.765Z,1013.78
2017-10-17T00:31:57.532Z,1013.74
2017-10-17T00:32:21.741Z,1013.83
2017-10-17T00:32:32.079Z,1013.78
2017-10-17T00:32:40.436Z,1013.72
2017-10-17T00:32:58.689Z,1013.76
2017-10-17T00:33:15.166Z,1013.72
2017-10-17T00:33:24.366Z,1013.74
2017-10-17T00:33:37.332Z,1013.73
2017-10-17T00:33:54.541Z,1013.71
2017-10-17T00:34:07.586Z,1013.73
2017-10-17T00:34:26.805Z,1013.72
2017-10-17T00:34:48.186Z,1013.69
2017-10-17T00:35:04.682Z,1013.76
2017-10-17T00:35:16.559Z,1013.75
2017-10-17T00:35:25.101Z,1013.77
2017-10-17T00:35:37.654Z,1013.70
2017-10-17T00:35:45.778Z,1013.73
2017-10-17T00:36:17.485Z,1013.67
2017-10-17T00:36:27.080Z,1013.79
2017-10-17T00:36:42.248Z,1013.73
2017-10-17T00:36:55.918Z,1013.70
2017-10-17T00:37:08.745Z,1013.74
2017-10-17T00:37:23.879Z,1013.74
2017-10-17T00:37:41.573Z,1013.76
2017-10-17T00:38:05.650Z,1013.73
2017-10-17T00:38:14.899Z,1013.77
2017-10-17T00:38:36.658Z,1013.71
2017-10-17T00:38:54.421Z,1013.66
2017-10-17T00:39:20.681Z,1013.73
2017-10-17T00:39:30.374Z,1013.73
2017-10-17T00:39:51.073Z,1013.73
2017-10-17T00:40:07.837Z,1013.72
2017-10-17T00:40:16.251Z,1013.72
2017-10-17T00:40:36.082Z,1013.63
2017-10-17T00:41:16.547Z,1013.66
2017-10-17T00:41:32.005Z,1013.69
2017-10-17T00:41:48.642Z,1013.72
2017-10-17T00:42:03.626Z,1013.68
2017-10-17T00:42:12.233Z,1013.67
2017-10-17T00:42:30.389Z,1013.70
2017-10-17T00:42:39.235Z,1013.68
2017-10-17T00:42:49.234Z,1013.70
2017-10-17T00:43:08.573Z,1013.66
2017-10-17T00:43:24.737Z,1013.67
2017-10-17T00:43:41.758Z,1013.59
2017-10-17T00:43:50.350Z,1013.67
2017-10-17T00:44:01.548Z,1013.66
2017-10-17T00:44:16.995Z,1013.64
2017-10-17T00:44:31.110Z,1013.70
2017-10-17T00:44:41.074Z,1013.69
2017-10-17T00:44:50.887Z,1013.68
2017-10-17T00:45:07.949Z,1013.70
2017-10-17T00:45:15.757Z,1013.72
2017-10-17T00:45:23.997Z,1013.66
2017-10-17T00:45:38.703Z,1013.64
2017-10-17T00:45:52.502Z,1013.63
2017-10-17T00:46:14.801Z,1013.73
2017-10-17T00:46:33.709Z,1013.68
2017-10-17T00:46:42.497Z,1013.64
2017-10-17T00:47:00.212Z,1013.62
2017-10-17T00:47:09.222Z,1013.64
2017-10-17T00:47:17.536Z,1013.62
2017-10-17T00:47:42.616Z,1013.71
2017-10-17T00:47:59.459Z,1013.71
2017-10-17T00:48:23.336Z,1013.66
2017-10-17T00:48:44.533Z,1013.55
2017-10-17T00:49:03.598Z,1013.68
2017-10-17T00:49:20.054Z,1013.65
2017-10-17T00:49:45.429Z,1013.63
2017-10-17T00:49:54.629Z,1013.61
2017-10-17T00:50:02.766Z,1013.62
2017-10-17T00:50:27.158Z,1013.64
2017-10-17T00:50:44.665Z,1013.66
2017-10-17T00:51:00.199Z,1013.57
2017-10-17T00:51:16.208Z,1013.64
2017-10-17T00:51:36.595Z,1013.50
2017-10-17T00:51:52.146Z,1013.59
2017-10-17T00:52:09.563Z,1013.60
2017-10-17T00:52:19.001Z,1013.60
2017-10-17T00:52:33.774Z,1013.60
2017-10-17T00:52:49.517Z,1013.62
2017-10-17T00:53:08.392Z,1013.67
2017-10-17T00:53:20.125Z,1013.63
2017-10-17T00:53:39.340Z,1013.67
2017-10-17T00:53:59.273Z,1013.63
2017-10-17T00:54:14.193Z,1013.54
2017-10-17T00:54:24.678Z,1013.54
2017-10-17T00:54:35.407Z,1013.53
2017-10-17T00:54:49.864Z,1013.52
2017-10-17T00:54:58.101Z,1013.57
2017-10-17T00:55:15.393Z,1013.56
2017-10-17T00:55:30.347Z,1013.59
2017-10-17T00:55:48.409Z,1013.64
2017-10-17T00:55:59.221Z,1013.48
2017-10-17T00:56:07.414Z,1013.46
2017-10-17T00:56:15.522Z,1013.55
2017-10-17T00:56:29.407Z,1013.56
2017-10-17T00:56:37.609Z,1013.49
2017-10-17T00:56:53.701Z,1013.58
2017-10-17T00:57:15.050Z,1013.54
2017-10-17T00:57:30.051Z,1013.63
2017-10-17T00:57:45.747Z,1013.59
2017-10-17T00:58:04.757Z,1013.67
2017-10-17T00:58:19.074Z,1013.58
2017-10-17T00:58:36.274Z,1013.52
2017-10-17T00:58:57.661Z,1013.52
2017-10-17T00:59:06.508Z,1013.53
2017-10-17T00:59:24.129Z,1013.49
2017-10-17T00:59:38.101Z,1013.49
2017-10-17T00:59:45.560Z,1013.49
2017-10-17T00:59:53.761Z,1013.55
2017-10-17T01:00:02.086Z,1013.56
2017-10-17T01:00:10.080Z,1013.60
2017-10-17T01:00:24.037Z,1013.53
2017-10-17T01:00:41.017Z,1013.52
2017-10-17T01:00:49.234Z,1013.54
2017-10-17T01:00:57.498Z,1013.57
2017-10-17T01:01:05.563Z,1013.57
2017-10-17T01:01:13.778Z,1013.45
2017-10-17T01:01:25.238Z,1013.50
2017-10-17T01:01:33.110Z,1013.51
2017-10-17T01:01:50.030Z,1013.52
2017-10-17T01:01:58.633Z,1013.54
2017-10-17T01:02:06.623Z,1013.50
2017-10-17T01:02:23.706Z,1013.54
2017-10-17T01:02:32.017Z,1013.60
2017-10-17T01:02:40.079Z,1013.44
2017-10-17T01:02:55.153Z,1013.57
2017-10-17T01:03:09.119Z,1013.54
2017-10-17T01:03:17.686Z,1013.59
2017-10-17T01:03:26.013Z,1013.59
2017-10-17T01:03:33.961Z,1013.54
2017-10-17T01:03:50.047Z,1013.56
2017-10-17T01:04:03.517Z,1013.56
2017-10-17T01:04:11.914Z,1013.57
2017-10-17T01:04:21.504Z,1013.58
2017-10-17T01:04:29.853Z,1013.74
2017-10-17T01:04:39.327Z,1013.64
2017-10-17T01:04:55.337Z,1013.60
2017-10-17T01:05:08.682Z,1013.57
2017-10-17T01:05:16.893Z,1013.59
2017-10-17T01:05:32.280Z,1013.58
2017-10-17T01:05:51.255Z,1013.61
2017-10-17T01:06:06.855Z,1013.61
2017-10-17T01:06:14.988Z,1013.58
2017-10-17T01:06:27.813Z,1013.56
2017-10-17T01:06:35.450Z,1013.59
2017-10-17T01:06:43.740Z,1013.60
2017-10-17T01:06:53.635Z,1013.48
2017-10-17T01:07:08.093Z,1013.59
2017-10-17T01:07:27.469Z,1013.58
2017-10-17T01:07:39.909Z,1013.58
2017-10-17T01:07:48.962Z,1013.54
2017-10-17T01:07:56.967Z,1013.59
2017-10-17T01:08:14.398Z,1013.63
2017-10-17T01:08:25.990Z,1013.59
2017-10-17T01:08:37.622Z,1013.54
2017-10-17T01:08:46.883Z,1013.57
2017-10-17T01:09:03.586Z,1013.52
2017-10-17T01:09:11.914Z,1013.58
2017-10-17T01:09:20.239Z,1013.51
2017-10-17T01:09:28.294Z,1013.55
2017-10-17T01:09:41.419Z,1013.61
2017-10-17T01:09:58.030Z,1013.58
2017-10-17T01:10:06.389Z,1013.61
2017-10-17T01:10:21.557Z,1013.55
2017-10-17T01:10:29.743Z,1013.55
2017-10-17T01:10:43.735Z,1013.52
2017-10-17T01:10:53.543Z,1013.59
2017-10-17T01:11:03.338Z,1013.61
2017-10-17T01:11:12.912Z,1013.52
2017-10-17T01:11:24.131Z,1013.54
2017-10-17T01:11:34.134Z,1013.59
2017-10-17T01:11:53.703Z,1013.56
2017-10-17T01:12:07.204Z,1013.60
2017-10-17T01:12:16.507Z,1013.59
2017-10-17T01:12:29.991Z,1013.60
2017-10-17T01:12:47.133Z,1013.55
2017-10-17T01:13:07.807Z,1013.61
2017-10-17T01:13:15.905Z,1013.53
2017-10-17T01:13:29.290Z,1013.57
2017-10-17T01:13:45.989Z,1013.63
2017-10-17T01:13:53.747Z,1013.60
2017-10-17T01:14:09.869Z,1013.60
2017-10-17T01:14:19.259Z,1013.59
2017-10-17T01:14:35.578Z,1013.55
2017-10-17T01:14:50.064Z,1013.62
2017-10-17T01:15:07.056Z,1013.58
2017-10-17T01:15:25.233Z,1013.64
2017-10-17T01:15:43.989Z,1013.62
2017-10-17T01:15:53.223Z,1013.57
2017-10-17T01:16:20.694Z,1013.56
2017-10-17T01:16:40.655Z,1013.55
2017-10-17T01:16:57.202Z,1013.59
2017-10-17T01:17:15.194Z,1013.55
2017-10-17T01:17:24.200Z,1013.51
2017-10-17T01:17:38.985Z,1013.56
2017-10-17T01:17:54.350Z,1013.53
2017-10-17T01:18:07.626Z,1013.61
2017-10-17T01:18:15.841Z,1013.56
2017-10-17T01:18:23.970Z,1013.51
2017-10-17T01:18:39.354Z,1013.59
2017-10-17T01:18:47.747Z,1013.55
2017-10-17T01:19:05.687Z,1013.57
2017-10-17T01:19:25.838Z,1013.61
2017-10-17T01:19:36.761Z,1013.57
2017-10-17T01:19:44.690Z,1013.59
2017-10-17T01:19:52.841Z,1013.48
2017-10-17T01:20:05.720Z,1013.59
2017-10-17T01:20:20.190Z,1013.56
2017-10-17T01:20:40.246Z,1013.57
2017-10-17T01:20:49.385Z,1013.48
2017-10-17T01:21:00.743Z,1013.51
2017-10-17T01:21:22.498Z,1013.53
2017-10-17T01:21:40.957Z,1013.52
2017-10-17T01:22:02.920Z,1013.54
2017-10-17T01:22:11.438Z,1013.56
2017-10-17T01:22:35.154Z,1013.49
2017-10-17T01:22:50.107Z,1013.52
2017-10-17T01:22:59.042Z,1013.54
2017-10-17T01:23:22.483Z,1013.63
2017-10-17T01:23:32.223Z,1013.58
2017-10-17T01:23:43.646Z,1013.50
2017-10-17T01:24:05.259Z,1013.58
2017-10-17T01:24:33.918Z,1013.65
2017-10-17T01:24:41.818Z,1013.58
2017-10-17T01:24:50.226Z,1013.53
2017-10-17T01:24:59.865Z,1013.53
2017-10-17T01:25:09.486Z,1013.55
2017-10-17T01:25:24.181Z,1013.55
2017-10-17T01:25:33.125Z,1013.54
2017-10-17T01:25:48.296Z,1013.48
2017-10-17T01:26:08.199Z,1013.49
2017-10-17T01:26:18.797Z,1013.48
2017-10-17T01:26:34.250Z,1013.52
2017-10-17T01:26:56.258Z,1013.50
2017-10-17T01:27:13.201Z,1013.48
2017-10-17T01:27:28.829Z,1013.42
2017-10-17T01:27:47.653Z,1013.54
2017-10-17T01:28:11.733Z,1013.55
2017-10-17T01:28:29.305Z,1013.51
2017-10-17T01:28:38.403Z,1013.51
2017-10-17T01:29:05.906Z,1013.55
2017-10-17T01:29:18.216Z,1013.56
2017-10-17T01:29:26.334Z,1013.52
2017-10-17T01:29:43.065Z,1013.53
2017-10-17T01:29:59.210Z,1013.55
2017-10-17T01:30:17.790Z,1013.55
2017-10-17T01:30:42.234Z,1013.57
2017-10-17T01:30:56.887Z,1013.48
2017-10-17T01:31:12.112Z,1013.50
2017-10-17T01:31:29.929Z,1013.56
2017-10-17T01:31:46.398Z,1013.55
2017-10-17T01:32:03.061Z,1013.51
2017-10-17T01:32:12.153Z,1013.56
2017-10-17T01:32:20.187Z,1013.60
2017-10-17T01:33:02.529Z,1013.56
2017-10-17T01:33:11.017Z,1013.61
2017-10-17T01:33:19.434Z,1013.59
2017-10-17T01:33:49.386Z,1013.59
2017-10-17T01:34:04.936Z,1013.55
2017-10-17T01:34:23.378Z,1013.59
2017-10-17T01:34:42.178Z,1013.61
2017-10-17T01:35:00.027Z,1013.57
2017-10-17T01:35:18.464Z,1013.55
2017-10-17T01:35:26.661Z,1013.56
2017-10-17T01:35:40.285Z,1013.55
2017-10-17T01:36:00.341Z,1013.62
2017-10-17T01:36:27.381Z,1013.62
2017-10-17T01:36:37.313Z,1013.61
2017-10-17T01:36:46.891Z,1013.64
2017-10-17T01:37:02.963Z,1013.49
2017-10-17T01:37:17.278Z,1013.56
2017-10-17T01:37:26.273Z,1013.56
2017-10-17T01:37:41.140Z,1013.50
2017-10-17T01:37:51.787Z,1013.59
2017-10-17T01:38:03.023Z,1013.50
2017-10-17T01:38:19.854Z,1013.56
2017-10-17T01:38:28.127Z,1013.55
2017-10-17T01:38:41.040Z,1013.58
2017-10-17T01:38:54.030Z,1013.56
2017-10-17T01:39:10.850Z,1013.62
2017-10-17T01:39:34.426Z,1013.59
2017-10-17T01:39:53.323Z,1013.56
2017-10-17T01:40:12.750Z,1013.57
2017-10-17T01:40:21.987Z,1013.56
2017-10-17T01:40:38.158Z,1013.60
2017-10-17T01:40:57.621Z,1013.62
2017-10-17T01:41:06.115Z,1013.60
2017-10-17T01:41:23.236Z,1013.55
2017-10-17T01:41:31.401Z,1013.59
2017-10-17T01:41:47.634Z,1013.60
2017-10-17T01:42:08.081Z,1013.65
2017-10-17T01:42:17.091Z,1013.50
2017-10-17T01:42:25.231Z,1013.57
2017-10-17T01:42:33.675Z,1013.62
2017-10-17T01:42:53.549Z,1013.63
2017-10-17T01:43:09.534Z,1013.56
2017-10-17T01:43:28.917Z,1013.54
2017-10-17T01:43:44.971Z,1013.62
2017-10-17T01:43:56.593Z,1013.65
2017-10-17T01:44:04.671Z,1013.55
2017-10-17T01:44:12.842Z,1013.60
2017-10-17T01:44:20.962Z,1013.57
2017-10-17T01:44:35.955Z,1013.58
2017-10-17T01:44:48.507Z,1013.55
2017-10-17T01:45:02.878Z,1013.57
2017-10-17T01:45:16.122Z,1013.52
2017-10-17T01:45:40.425Z,1013.59
2017-10-17T01:45:49.393Z,1013.56
2017-10-17T01:46:00.374Z,1013.52
2017-10-17T01:46:10.109Z,1013.62
2017-10-17T01:46:34.488Z,1013.62
2017-10-17T01:46:54.382Z,1013.64
2017-10-17T01:47:07.926Z,1013.63
2017-10-17T01:47:16.141Z,1013.55
2017-10-17T01:47:35.036Z,1013.58
2017-10-17T01:47:52.173Z,1013.57
2017-10-17T01:48:03.408Z,1013.54
2017-10-17T01:48:13.356Z,1013.61
2017-10-17T01:48:28.646Z,1013.52
2017-10-17T01:48:48.406Z,1013.62
2017-10-17T01:49:04.970Z,1013.49
2017-10-17T01:49:16.542Z,1013.61
2017-10-17T01:49:25.158Z,1013.49
2017-10-17T01:49:57.337Z,1013.55
2017-10-17T01:50:04.851Z,1013.54
2017-10-17T01:50:13.038Z,1013.53
2017-10-17T01:50:34.697Z,1013.54
2017-10-17T01:50:43.089Z,1013.55
2017-10-17T01:50:57.710Z,1013.48
2017-10-17T01:51:14.752Z,1013.50
2017-10-17T01:51:30.317Z,1013.52
2017-10-17T01:51:42.749Z,1013.47
2017-10-17T01:52:00.233Z,1013.52
2017-10-17T01:52:21.989Z,1013.45
2017-10-17T01:52:39.362Z,1013.45
2017-10-17T01:52:51.434Z,1013.44
2017-10-17T01:53:09.589Z,1013.50
2017-10-17T01:53:21.506Z,1013.53
2017-10-17T01:53:45.989Z,1013.42
2017-10-17T01:54:01.912Z,1013.45
2017-10-17T01:54:18.394Z,1013.43
2017-10-17T01:54:29.596Z,1013.41
2017-10-17T01:54:42.691Z,1013.49
2017-10-17T01:54:53.506Z,1013.51
2017-10-17T01:55:06.633Z,1013.45
2017-10-17T01:55:16.322Z,1013.45
2017-10-17T01:55:35.576Z,1013.47
2017-10-17T01:55:47.814Z,1013.48
2017-10-17T01:55:57.530Z,1013.48
2017-10-17T01:56:15.721Z,1013.43
2017-10-17T01:56:36.893Z,1013.41
2017-10-17T01:56:44.993Z,1013.44
2017-10-17T01:57:00.376Z,1013.55
2017-10-17T01:57:22.324Z,1013.49
2017-10-17T01:57:35.274Z,1013.47
2017-10-17T01:57:47.586Z,1013.47
2017-10-17T01:58:12.290Z,1013.36
2017-10-17T01:58:30.537Z,1013.42
2017-10-17T01:58:39.199Z,1013.48
2017-10-17T01:58:55.888Z,1013.53
2017-10-17T01:59:04.438Z,1013.40
2017-10-17T01:59:19.465Z,1013.47
2017-10-17T01:59:28.554Z,1013.40
2017-10-17T01:59:39.558Z,1013.39
2017-10-17T01:59:50.926Z,1013.49
2017-10-17T01:59:59.018Z,1013.46
2017-10-17T02:00:22.554Z,1013.45
2017-10-17T02:00:30.809Z,1013.48
2017-10-17T02:00:51.050Z,1013.40
2017-10-17T02:00:59.162Z,1013.45
2017-10-17T02:01:07.645Z,1013.43
2017-10-17T02:01:17.203Z,1013.40
2017-10-17T02:01:38.313Z,1013.45
2017-10-17T02:01:47.129Z,1013.41
2017-10-17T02:01:55.302Z,1013.41
2017-10-17T02:02:13.498Z,1013.47
2017-10-17T02:02:28.629Z,1013.47
2017-10-17T02:02:36.155Z,1013.47
2017-10-17T02:02:44.677Z,1013.43
2017-10-17T02:02:52.560Z,1013.47
2017-10-17T02:03:00.782Z,1013.49
2017-10-17T02:03:08.801Z,1013.46
2017-10-17T02:03:24.397Z,1013.47
2017-10-17T02:03:32.472Z,1013.44
2017-10-17T02:03:40.647Z,1013.48
2017-10-17T02:03:48.754Z,1013.48
2017-10-17T02:03:57.012Z,1013.44
2017-10-17T02:04:10.006Z,1013.47
2017-10-17T02:04:23.837Z,1013.44
2017-10-17T02:04:32.283Z,1013.47
2017-10-17T02:04:41.975Z,1013.49
2017-10-17T02:04:49.794Z,1013.51
2017-10-17T02:05:05.609Z,1013.55
2017-10-17T02:05:13.620Z,1013.56
2017-10-17T02:05:21.595Z,1013.48
2017-10-17T02:05:38.638Z,1013.49
2017-10-17T02:05:48.469Z,1013.53
2017-10-17T02:06:03.537Z,1013.48
2017-10-17T02:06:12.421Z,1013.48
2017-10-17T02:06:28.862Z,1013.50
2017-10-17T02:06:54.733Z,1013.48
2017-10-17T02:07:02.650Z,1013.51
2017-10-17T02:07:17.238Z,1013.49
2017-10-17T02:07:32.506Z,1013.46
2017-10-17T02:07:40.518Z,1013.46
2017-10-17T02:08:04.703Z,1013.51
2017-10-17T02:08:29.865Z,1013.56
2017-10-17T02:08:45.811Z,1013.51
2017-10-17T02:08:54.435Z,1013.54
2017-10-17T02:09:07.839Z,1013.63
2017-10-17T02:09:24.232Z,1013.57
2017-10-17T02:09:47.971Z,1013.53
2017-10-17T02:10:03.515Z,1013.57
2017-10-17T02:10:17.089Z,1013.59
2017-10-17T02:10:32.874Z,1013.61
2017-10-17T02:10:46.437Z,1013.57
2017-10-17T02:11:14.909Z,1013.66
2017-10-17T02:11:29.770Z,1013.65
2017-10-17T02:11:38.667Z,1013.57
2017-10-17T02:11:47.086Z,1013.56
2017-10-17T02:11:58.195Z,1013.58
2017-10-17T02:12:11.139Z,1013.55
2017-10-17T02:12:19.535Z,1013.64
2017-10-17T02:12:36.621Z,1013.54
2017-10-17T02:12:47.841Z,1013.61
2017-10-17T02:13:03.954Z,1013.61
2017-10-17T02:13:11.901Z,1013.58
2017-10-17T02:13:20.247Z,1013.67
2017-10-17T02:13:35.938Z,1013.58
2017-10-17T02:13:50.504Z,1013.59
2017-10-17T02:14:01.090Z,1013.58
2017-10-17T02:14:16.798Z,1013.60
2017-10-17T02:14:35.182Z,1013.60
2017-10-17T02:14:59.085Z,1013.64
2017-10-17T02:15:06.937Z,1013.68
2017-10-17T02:15:15.093Z,1013.63
2017-10-17T02:15:38.762Z,1013.58
2017-10-17T02:15:47.309Z,1013.63
2017-10-17T02:16:04.340Z,1013.55
2017-10-17T02:16:24.841Z,1013.57
2017-10-17T02:16:43.160Z,1013.61
2017-10-17T02:17:01.961Z,1013.58
2017-10-17T02:17:09.974Z,1013.63
2017-10-17T02:17:18.138Z,1013.68
2017-10-17T02:17:32.274Z,1013.65
2017-10-17T02:17:48.133Z,1013.57
2017-10-17T02:18:08.205Z,1013.54
2017-10-17T02:18:16.319Z,1013.62
2017-10-17T02:18:26.429Z,1013.66
2017-10-17T02:18:45.517Z,1013.64
2017-10-17T02:18:52.950Z,1013.70
2017-10-17T02:19:09.633Z,1013.66
2017-10-17T02:19:19.860Z,1013.55
2017-10-17T02:19:32.983Z,1013.62
2017-10-17T02:19:50.469Z,1013.65
2017-10-17T02:19:58.109Z,1013.55
2017-10-17T02:20:06.619Z,1013.66
2017-10-17T02:20:23.923Z,1013.66
2017-10-17T02:20:37.485Z,1013.68
2017-10-17T02:21:04.565Z,1013.58
2017-10-17T02:21:19.406Z,1013.48
2017-10-17T02:21:49.501Z,1013.64
2017-10-17T02:22:07.154Z,1013.59
2017-10-17T02:22:30.106Z,1013.55
2017-10-17T02:22:44.750Z,1013.53
2017-10-17T02:22:54.887Z,1013.51
2017-10-17T02:23:07.957Z,1013.64
2017-10-17T02:23:34.535Z,1013.53
2017-10-17T02:23:46.931Z,1013.59
2017-10-17T02:23:56.870Z,1013.61
2017-10-17T02:24:04.810Z,1013.59
2017-10-17T02:24:13.399Z,1013.63
2017-10-17T02:24:31.546Z,1013.48
2017-10-17T02:24:44.909Z,1013.48
2017-10-17T02:25:01.074Z,1013.55
2017-10-17T02:25:19.541Z,1013.56
2017-10-17T02:25:43.217Z,1013.46
2017-10-17T02:26:12.222Z,1013.48
2017-10-17T02:26:20.073Z,1013.56
2017-10-17T02:26:43.969Z,1013.46
2017-10-17T02:26:59.357Z,1013.48
2017-10-17T02:27:20.263Z,1013.59
2017-10-17T02:27:29.294Z,1013.54
2017-10-17T02:27:48.805Z,1013.54
2017-10-17T02:28:11.973Z,1013.48
2017-10-17T02:28:26.338Z,1013.62
2017-10-17T02:28:37.138Z,1013.57
2017-10-17T02:28:45.463Z,1013.53
2017-10-17T02:29:15.104Z,1013.52
2017-10-17T02:29:24.606Z,1013.60
2017-10-17T02:29:42.469Z,1013.56
2017-10-17T02:30:01.347Z,1013.55
2017-10-17T02:30:24.748Z,1013.48
2017-10-17T02:30:32.338Z,1013.60
2017-10-17T02:30:41.063Z,1013.50
2017-10-17T02:30:52.063Z,1013.56
2017-10-17T02:31:14.920Z,1013.58
2017-10-17T02:31:31.738Z,1013.54
2017-10-17T02:31:42.381Z,1013.54
2017-10-17T02:31:59.570Z,1013.56
2017-10-17T02:32:19.346Z,1013.56
2017-10-17T02:32:40.416Z,1013.51
2017-10-17T02:32:56.962Z,1013.53
2017-10-17T02:33:15.109Z,1013.59
2017-10-17T02:33:36.297Z,1013.58
2017-10-17T02:34:01.571Z,1013.53
2017-10-17T02:34:16.271Z,1013.59
2017-10-17T02:34:40.462Z,1013.51
2017-10-17T02:34:58.958Z,1013.53
2017-10-17T02:35:19.550Z,1013.56
2017-10-17T02:35:44.048Z,1013.57
2017-10-17T02:35:53.117Z,1013.48
2017-10-17T02:36:13.745Z,1013.52
2017-10-17T02:36:31.122Z,1013.50
2017-10-17T02:36:39.619Z,1013.53
2017-10-17T02:37:07.334Z,1013.49
2017-10-17T02:37:29.314Z,1013.54
2017-10-17T02:37:38.136Z,1013.55
2017-10-17T02:37:57.099Z,1013.51
2017-10-17T02:38:36.888Z,1013.57
2017-10-17T02:38:45.969Z,1013.56
2017-10-17T02:39:14.069Z,1013.58
2017-10-17T02:39:30.542Z,1013.60
2017-10-17T02:39:47.579Z,1013.51
2017-10-17T02:40:03.830Z,1013.57
2017-10-17T02:40:12.766Z,1013.54
2017-10-17T02:40:29.212Z,1013.51
2017-10-17T02:40:40.370Z,1013.59
2017-10-17T02:40:49.218Z,1013.53
2017-10-17T02:40:59.290Z,1013.52
2017-10-17T02:41:25.068Z,1013.48
2017-10-17T02:41:40.330Z,1013.53
2017-10-17T02:41:58.885Z,1013.52
2017-10-17T02:42:24.559Z,1013.55
2017-10-17T02:42:33.068Z,1013.47
2017-10-17T02:42:41.999Z,1013.53
2017-10-17T02:43:03.496Z,1013.61
2017-10-17T02:43:18.769Z,1013.58
2017-10-17T02:43:27.094Z,1013.59
2017-10-17T02:43:40.570Z,1013.59
2017-10-17T02:43:50.902Z,1013.58
2017-10-17T02:44:08.260Z,1013.54
2017-10-17T02:44:15.877Z,1013.56
2017-10-17T02:44:33.961Z,1013.58
2017-10-17T02:44:55.134Z,1013.56
2017-10-17T02:45:06.890Z,1013.55
2017-10-17T02:45:26.934Z,1013.56
2017-10-17T02:45:35.881Z,1013.63
2017-10-17T02:45:54.163Z,1013.64
2017-10-17T02:46:21.644Z,1013.54
2017-10-17T02:46:41.098Z,1013.59
2017-10-17T02:46:58.669Z,1013.58
2017-10-17T02:47:14.131Z,1013.54
2017-10-17T02:47:31.162Z,1013.52
2017-10-17T02:47:48.613Z,1013.63
2017-10-17T02:48:10.940Z,1013.58
2017-10-17T02:48:21.284Z,1013.56
2017-10-17T02:48:58.637Z,1013.55
2017-10-17T02:49:11.574Z,1013.58
2017-10-17T02:49:21.267Z,1013.54
2017-10-17T02:49:35.355Z,1013.57
2017-10-17T02:49:54.069Z,1013.54
2017-10-17T02:50:03.073Z,1013.51
2017-10-17T02:50:22.338Z,1013.49
2017-10-17T02:50:46.042Z,1013.53
2017-10-17T02:50:53.570Z,1013.54
2017-10-17T02:51:12.127Z,1013.53
2017-10-17T02:51:35.712Z,1013.52
2017-10-17T02:51:50.454Z,1013.50
2017-10-17T02:51:57.981Z,1013.54
2017-10-17T02:52:13.931Z,1013.59
2017-10-17T02:52:23.554Z,1013.60
2017-10-17T02:52:36.288Z,1013.65
2017-10-17T02:52:53.326Z,1013.60
2017-10-17T02:53:11.015Z,1013.55
2017-10-17T02:53:52.099Z,1013.57
2017-10-17T02:54:08.726Z,1013.56
2017-10-17T02:54:29.796Z,1013.53
2017-10-17T02:54:43.153Z,1013.43
2017-10-17T02:54:58.403Z,1013.53
2017-10-17T02:55:14.809Z,1013.56
2017-10-17T02:55:32.757Z,1013.57